Time;durP1;ratioP1;P1;durP2;ratioP2;P2;SDS_P1;SDS_P2;PMS_P1;PMS_P2;Temp;Humidity;BMP_temperature;BMP_pressure;BME280_temperature;BME280_humidity;BME280_pressure;Samples;Min_cycle;Max_cycle;Signal;HPM_P1;HPM_P2
2022/11/23 00:01:48;;;;;;;10.45;5.10;;;;;;;-2.05;100.00;98539.59;5153225;27;20137;-46
2022/11/23 00:04:15;;;;;;;7.93;4.43;;;;;;;-2.04;100.00;98539.28;5153288;27;20092;-47
2022/11/23 00:06:41;;;;;;;9.13;5.82;;;;;;;-1.85;100.00;98560.69;5153115;27;20053;-49
2022/11/23 00:09:10;;;;;;;9.68;5.28;;;;;;;-1.97;100.00;98549.63;5153232;27;20510;-47
2022/11/23 00:11:36;;;;;;;7.80;4.80;;;;;;;-1.82;100.00;98552.03;5153122;27;20107;-47
2022/11/23 00:14:03;;;;;;;9.52;5.50;;;;;;;-1.92;100.00;98526.16;5152867;27;20137;-47
2022/11/23 00:16:30;;;;;;;10.38;6.10;;;;;;;-1.83;100.00;98518.22;5153180;27;20552;-47
2022/11/23 00:18:58;;;;;;;8.23;5.72;;;;;;;-1.64;100.00;98519.97;5151747;27;20095;-47
2022/11/23 00:21:26;;;;;;;8.85;5.22;;;;;;;-1.91;100.00;98508.94;5153104;27;20133;-47
2022/11/23 00:23:53;;;;;;;9.02;5.45;;;;;;;-1.69;100.00;98504.78;5152756;27;20050;-47
2022/11/23 00:26:21;;;;;;;7.97;4.80;;;;;;;-1.81;100.00;98485.66;5153042;27;20141;-48
2022/11/23 00:28:47;;;;;;;10.30;4.70;;;;;;;-1.97;100.00;98493.22;5153108;27;20051;-49
2022/11/23 00:31:16;;;;;;;11.80;6.43;;;;;;;-2.11;100.00;98512.03;5152966;27;20094;-48
2022/11/23 00:33:47;;;;;;;12.07;6.38;;;;;;;-1.90;100.00;98550.84;5152626;27;20057;-48
2022/11/23 00:36:15;;;;;;;10.88;5.30;;;;;;;-2.15;100.00;98541.38;5152728;27;20541;-48
2022/11/23 00:38:42;;;;;;;10.32;5.68;;;;;;;-2.04;100.00;98576.09;5152628;27;20054;-49
2022/11/23 00:41:11;;;;;;;12.20;6.05;;;;;;;-1.95;100.00;98567.06;5152412;27;20572;-48
2022/11/23 00:43:38;;;;;;;9.32;5.50;;;;;;;-1.82;100.00;98557.41;5152851;27;20129;-46
2022/11/23 00:46:05;;;;;;;9.60;5.75;;;;;;;-1.69;100.00;98532.44;5152638;27;20141;-48
2022/11/23 00:48:33;;;;;;;9.52;5.10;;;;;;;-2.14;100.00;98510.72;5152606;27;20558;-47
2022/11/23 00:51:00;;;;;;;8.50;5.40;;;;;;;-2.14;100.00;98537.56;5152427;27;20047;-47
2022/11/23 00:53:26;;;;;;;9.27;5.55;;;;;;;-2.20;100.00;98567.50;5152661;27;20053;-48
2022/11/23 00:55:53;;;;;;;7.57;3.63;;;;;;;-2.18;100.00;98563.44;5152224;27;20050;-47
2022/11/23 00:58:20;;;;;;;8.70;5.32;;;;;;;-2.22;100.00;98562.44;5152367;27;20050;-47
2022/11/23 01:00:47;;;;;;;7.32;4.38;;;;;;;-2.24;100.00;98556.56;5152280;27;20051;-47
2022/11/23 01:03:13;;;;;;;7.57;4.68;;;;;;;-2.26;100.00;98557.97;5152389;27;20049;-47
2022/11/23 01:05:41;;;;;;;8.38;5.05;;;;;;;-2.21;100.00;98553.28;5152145;27;20050;-48
2022/11/23 01:08:08;;;;;;;11.02;5.32;;;;;;;-2.44;100.00;98548.84;5152023;27;20069;-47
2022/11/23 01:10:34;;;;;;;7.55;5.05;;;;;;;-2.28;100.00;98574.34;5152243;27;20095;-46
2022/11/23 01:13:01;;;;;;;10.10;5.25;;;;;;;-2.19;100.00;98583.34;5151946;27;20090;-47
2022/11/23 01:15:27;;;;;;;6.78;4.53;;;;;;;-2.19;100.00;98572.59;5152354;27;20147;-46
2022/11/23 01:17:53;;;;;;;10.90;4.45;;;;;;;-2.12;100.00;98550.72;5151898;27;20129;-47
2022/11/23 01:20:20;;;;;;;7.72;4.82;;;;;;;-2.18;100.00;98528.53;5152339;27;20095;-47
2022/11/23 01:22:47;;;;;;;9.90;5.80;;;;;;;-2.60;100.00;98491.94;5151939;27;20051;-47
2022/11/23 01:25:13;;;;;;;8.60;5.00;;;;;;;-2.43;100.00;98543.22;5152360;27;20103;-46
2022/11/23 01:27:39;;;;;;;6.68;4.18;;;;;;;-2.46;100.00;98543.78;5152057;27;20555;-48
2022/11/23 01:30:07;;;;;;;5.43;3.42;;;;;;;-2.52;100.00;98531.53;5151839;27;20093;-47
2022/11/23 01:32:33;;;;;;;8.77;4.20;;;;;;;-2.56;100.00;98549.34;5151956;27;20455;-46
2022/11/23 01:35:00;;;;;;;7.90;3.97;;;;;;;-2.35;100.00;98565.88;5152072;27;20475;-47
2022/11/23 01:37:26;;;;;;;7.95;4.55;;;;;;;-2.35;100.00;98549.78;5151881;27;20057;-47
2022/11/23 01:39:53;;;;;;;7.68;4.32;;;;;;;-2.26;100.00;98534.59;5151915;27;20047;-49
2022/11/23 01:42:19;;;;;;;8.77;4.40;;;;;;;-2.38;100.00;98510.88;5151958;27;20051;-47
2022/11/23 01:44:47;;;;;;;7.18;3.88;;;;;;;-2.43;100.00;98513.69;5151478;27;20061;-47
2022/11/23 01:47:13;;;;;;;8.70;4.78;;;;;;;-2.51;100.00;98505.50;5151758;27;20062;-47
2022/11/23 01:49:44;;;;;;;6.22;3.83;;;;;;;-2.47;100.00;98509.19;5151477;27;20043;-46
2022/11/23 01:52:14;;;;;;;7.95;4.65;;;;;;;-2.32;100.00;98518.88;5151745;27;20471;-48
2022/11/23 01:54:46;;;;;;;7.03;4.13;;;;;;;-2.47;100.00;98519.91;5151298;27;20090;-47
2022/11/23 01:57:17;;;;;;;8.52;4.40;;;;;;;-2.41;100.00;98508.00;5151378;27;20065;-47
2022/11/23 01:59:44;;;;;;;7.15;3.85;;;;;;;-2.38;100.00;98510.88;5151379;27;20137;-47
2022/11/23 02:02:11;;;;;;;8.95;4.50;;;;;;;-2.36;100.00;98497.19;5151276;27;20078;-47
2022/11/23 02:04:41;;;;;;;7.07;4.32;;;;;;;-2.41;100.00;98494.59;5151366;27;20050;-47
2022/11/23 02:07:08;;;;;;;10.65;4.78;;;;;;;-2.40;100.00;98490.78;5151258;27;20049;-48
2022/11/23 02:09:35;;;;;;;6.70;4.22;;;;;;;-2.35;100.00;98490.72;5151413;27;20493;-46
2022/11/23 02:12:02;;;;;;;8.18;4.10;;;;;;;-2.29;100.00;98473.44;5151352;27;20428;-47
2022/11/23 02:14:29;;;;;;;7.93;3.95;;;;;;;-2.33;100.00;98442.91;5151471;27;20086;-46
2022/11/23 02:16:58;;;;;;;5.68;3.72;;;;;;;-2.46;100.00;98431.06;5150958;27;20043;-47
2022/11/23 02:19:38;;;;;;;7.35;3.45;;;;;;;-2.57;100.00;98443.06;5151380;27;20084;-47
2022/11/23 02:22:09;;;;;;;8.38;4.00;;;;;;;-2.46;100.00;98449.84;5151069;27;20140;-46
2022/11/23 02:24:41;;;;;;;11.05;5.05;;;;;;;-2.62;100.00;98427.06;5151088;27;20110;-47
2022/11/23 02:27:08;;;;;;;5.78;3.63;;;;;;;-2.48;100.00;98449.34;5151306;27;20082;-47
2022/11/23 02:29:35;;;;;;;5.10;3.78;;;;;;;-2.49;100.00;98455.03;5151084;27;20054;-48
2022/11/23 02:32:01;;;;;;;6.28;4.18;;;;;;;-2.60;100.00;98438.28;5151316;27;20138;-46
2022/11/23 02:34:27;;;;;;;8.52;4.55;;;;;;;-2.59;100.00;98453.31;5150890;27;20110;-47
2022/11/23 02:36:56;;;;;;;7.07;4.50;;;;;;;-2.41;100.00;98448.94;5151145;27;20046;-47
2022/11/23 02:39:29;;;;;;;6.53;3.88;;;;;;;-2.31;100.00;98426.50;5151180;27;20114;-46
2022/11/23 02:41:56;;;;;;;8.18;4.82;;;;;;;-2.97;100.00;98383.66;5151829;27;20050;-48
2022/11/23 02:44:33;;;;;;;8.05;4.40;;;;;;;-2.56;100.00;98486.81;5154571;27;20106;-48
2022/11/23 02:47:00;;;;;;;7.38;4.55;;;;;;;-2.47;100.00;98488.50;5154310;27;20085;-48
2022/11/23 02:49:26;;;;;;;5.97;4.65;;;;;;;-2.48;100.00;98502.22;5154444;27;20536;-47
2022/11/23 02:51:53;;;;;;;9.93;4.63;;;;;;;-2.52;100.00;98509.28;5154345;27;20133;-48
2022/11/23 02:54:19;;;;;;;8.40;4.68;;;;;;;-2.30;100.00;98522.84;5154197;27;20062;-47
2022/11/23 02:56:45;;;;;;;10.80;4.57;;;;;;;-2.57;100.00;98498.63;5154264;27;20497;-48
2022/11/23 02:59:12;;;;;;;7.45;4.80;;;;;;;-2.61;100.00;98530.63;5154342;27;20142;-47
2022/11/23 03:01:39;;;;;;;9.20;4.57;;;;;;;-2.25;100.00;98554.19;5154174;27;20046;-50
2022/11/23 03:04:05;;;;;;;8.13;4.63;;;;;;;-2.36;100.00;98518.66;5154637;27;20095;-50
2022/11/23 03:06:32;;;;;;;8.40;5.10;;;;;;;-2.40;100.00;98509.59;5154325;27;20082;-51
2022/11/23 03:08:58;;;;;;;6.55;4.60;;;;;;;-2.93;100.00;98508.06;5154442;27;20477;-51
2022/11/23 03:11:24;;;;;;;10.02;5.28;;;;;;;-2.34;100.00;98580.91;5154439;27;20049;-52
2022/11/23 03:13:51;;;;;;;9.98;4.65;;;;;;;-2.38;100.00;98553.06;5154267;27;20082;-48
2022/11/23 03:16:17;;;;;;;9.55;4.65;;;;;;;-2.53;100.00;98567.53;5153899;27;20047;-48
2022/11/23 03:18:44;;;;;;;6.38;3.92;;;;;;;-2.51;100.00;98576.06;5153811;27;20046;-49
2022/11/23 03:21:10;;;;;;;8.60;4.85;;;;;;;-2.58;100.00;98581.03;5154069;27;20047;-47
2022/11/23 03:23:37;;;;;;;9.07;4.68;;;;;;;-2.81;100.00;98595.31;5153783;27;20556;-47
2022/11/23 03:26:04;;;;;;;8.65;4.93;;;;;;;-2.92;100.00;98646.44;5153838;27;20090;-47
2022/11/23 03:28:30;;;;;;;7.97;3.70;;;;;;;-2.98;100.00;98697.75;5153774;27;20095;-48
2022/11/23 03:30:56;;;;;;;8.73;4.78;;;;;;;-2.83;100.00;98727.09;5154085;27;20047;-48
2022/11/23 03:33:23;;;;;;;9.32;4.22;;;;;;;-2.74;100.00;98744.13;5153727;27;20095;-51
2022/11/23 03:35:50;;;;;;;8.25;4.55;;;;;;;-3.06;100.00;98731.38;5153972;27;20533;-52
2022/11/23 03:38:16;;;;;;;7.47;4.13;;;;;;;-3.04;100.00;98809.63;5153613;27;20111;-48
2022/11/23 03:40:44;;;;;;;6.43;3.95;;;;;;;-3.07;100.00;98853.13;5153808;27;20047;-49
2022/11/23 03:43:11;;;;;;;7.97;4.60;;;;;;;-2.77;100.00;98875.34;5153849;27;20051;-47
2022/11/23 03:45:37;;;;;;;11.13;5.10;;;;;;;-2.61;100.00;98858.81;5153416;27;20168;-47
2022/11/23 03:48:03;;;;;;;7.65;5.05;;;;;;;-2.52;100.00;98871.63;5153581;27;20057;-46
2022/11/23 03:50:30;;;;;;;8.45;4.82;;;;;;;-2.48;100.00;98830.47;5153392;27;20055;-48
2022/11/23 03:52:58;;;;;;;8.85;5.15;;;;;;;-2.61;100.00;98799.78;5153268;27;20050;-47
2022/11/23 03:55:24;;;;;;;11.77;5.45;;;;;;;-2.83;100.00;98772.69;5153281;27;20054;-48
2022/11/23 03:57:53;;;;;;;7.30;4.50;;;;;;;-2.64;100.00;98796.84;5153302;27;20069;-47
2022/11/23 04:00:20;;;;;;;7.40;4.60;;;;;;;-2.64;100.00;98803.03;5153328;27;20154;-47
2022/11/23 04:02:46;;;;;;;6.28;3.72;;;;;;;-2.85;100.00;98799.00;5153642;27;20126;-46
2022/11/23 04:05:13;;;;;;;7.50;5.03;;;;;;;-2.85;100.00;98807.84;5153198;27;20069;-47
2022/11/23 04:07:39;;;;;;;11.38;5.05;;;;;;;-2.75;100.00;98817.66;5153530;27;20457;-47
2022/11/23 04:10:07;;;;;;;7.90;5.13;;;;;;;-3.12;100.00;98823.69;5153220;27;20047;-47
2022/11/23 04:12:33;;;;;;;8.80;4.85;;;;;;;-2.90;100.00;98866.09;5153165;27;20047;-47
2022/11/23 04:14:59;;;;;;;10.68;5.05;;;;;;;-2.93;100.00;98870.16;5153022;27;20051;-47
2022/11/23 04:17:26;;;;;;;7.95;5.18;;;;;;;-2.92;100.00;98879.81;5152838;27;20089;-48
2022/11/23 04:19:52;;;;;;;10.73;5.45;;;;;;;-2.83;100.00;98890.72;5152955;27;20067;-48
2022/11/23 04:22:18;;;;;;;10.45;6.03;;;;;;;-3.01;100.00;98883.38;5152966;27;20161;-47
2022/11/23 04:24:45;;;;;;;9.45;5.43;;;;;;;-2.81;100.00;98898.47;5153291;27;20607;-48
2022/11/23 04:27:11;;;;;;;10.90;5.80;;;;;;;-2.71;100.00;98903.75;5153058;27;20078;-48
2022/11/23 04:29:38;;;;;;;7.78;4.80;;;;;;;-2.78;100.00;98879.13;5153186;27;20050;-47
2022/11/23 04:32:04;;;;;;;10.98;6.10;;;;;;;-2.65;100.00;98891.88;5152817;27;20138;-49
2022/11/23 04:34:31;;;;;;;11.43;5.55;;;;;;;-2.63;100.00;98882.47;5152905;27;20058;-47
2022/11/23 04:36:57;;;;;;;12.98;5.70;;;;;;;-2.88;100.00;98874.66;5152702;27;20047;-48
2022/11/23 04:39:23;;;;;;;9.10;5.57;;;;;;;-2.64;100.00;98888.09;5152821;27;20046;-47
2022/11/23 04:41:50;;;;;;;10.63;5.80;;;;;;;-2.78;100.00;98879.13;5152460;27;20187;-47
2022/11/23 04:44:16;;;;;;;8.82;5.07;;;;;;;-2.97;100.00;98874.47;5152362;27;20122;-48
2022/11/23 04:46:43;;;;;;;10.95;5.85;;;;;;;-2.76;100.00;98896.56;5152568;27;20133;-47
2022/11/23 04:49:09;;;;;;;11.13;5.57;;;;;;;-2.75;100.00;98895.47;5152389;27;20098;-47
2022/11/23 04:51:35;;;;;;;11.80;5.90;;;;;;;-2.77;100.00;98881.50;5152589;27;20402;-47
2022/11/23 04:54:02;;;;;;;11.43;5.90;;;;;;;-2.84;100.00;98886.41;5152490;27;20054;-48
2022/11/23 04:56:28;;;;;;;9.88;5.63;;;;;;;-2.66;100.00;98890.28;5152354;27;20046;-47
2022/11/23 04:58:54;;;;;;;15.10;6.15;;;;;;;-2.56;100.00;98884.81;5152265;27;20137;-48
2022/11/23 05:01:21;;;;;;;11.25;5.32;;;;;;;-2.48;100.00;98868.06;5152479;27;20047;-47
2022/11/23 05:03:48;;;;;;;11.23;5.38;;;;;;;-2.57;100.00;98842.13;5152099;27;20497;-48
2022/11/23 05:06:14;;;;;;;12.70;5.95;;;;;;;-2.55;100.00;98835.41;5151644;27;20141;-48
2022/11/23 05:08:42;;;;;;;12.77;6.47;;;;;;;-2.83;100.00;98818.28;5152111;27;20043;-47
2022/11/23 05:11:08;;;;;;;13.25;6.95;;;;;;;-2.67;100.00;98832.31;5151820;27;20133;-47
2022/11/23 05:13:35;;;;;;;13.50;7.03;;;;;;;-2.88;100.00;98840.59;5151637;27;20494;-47
2022/11/23 05:16:02;;;;;;;11.80;6.95;;;;;;;-2.69;100.00;98864.03;5151922;27;20474;-47
2022/11/23 05:18:29;;;;;;;12.73;6.43;;;;;;;-2.63;100.00;98858.31;5152089;27;20057;-47
2022/11/23 05:20:55;;;;;;;13.98;7.13;;;;;;;-2.89;100.00;98846.25;5151930;27;20101;-46
2022/11/23 05:23:21;;;;;;;13.63;6.72;;;;;;;-2.78;100.00;98858.47;5152092;27;20051;-47
2022/11/23 05:25:48;;;;;;;16.10;7.90;;;;;;;-2.58;100.00;98859.34;5151722;27;20100;-48
2022/11/23 05:28:16;;;;;;;13.57;6.82;;;;;;;-2.76;100.00;98858.19;5151785;27;20101;-54
2022/11/23 05:30:43;;;;;;;14.77;6.80;;;;;;;-2.65;100.00;98871.19;5152067;27;20053;-56
2022/11/23 05:33:09;;;;;;;16.10;6.57;;;;;;;-2.56;100.00;98887.50;5151602;27;20042;-53
2022/11/23 05:35:36;;;;;;;13.25;7.35;;;;;;;-2.45;100.00;98858.66;5151918;27;20050;-55
2022/11/23 05:38:03;;;;;;;12.10;6.45;;;;;;;-2.30;100.00;98853.09;5151621;27;20085;-58
2022/11/23 05:40:30;;;;;;;12.75;6.55;;;;;;;-2.21;100.00;98834.44;5151743;27;20090;-53
2022/11/23 05:42:56;;;;;;;16.92;6.55;;;;;;;-2.22;100.00;98809.47;5151503;27;20046;-52
2022/11/23 05:45:24;;;;;;;12.30;6.32;;;;;;;-2.22;100.00;98779.94;5151587;27;20087;-55
2022/11/23 05:47:51;;;;;;;13.02;6.13;;;;;;;-2.33;100.00;98762.38;5151506;27;20086;-55
2022/11/23 05:50:17;;;;;;;10.18;5.47;;;;;;;-2.55;100.00;98762.94;5151488;27;20082;-52
2022/11/23 05:52:44;;;;;;;11.43;5.97;;;;;;;-2.52;100.00;98777.69;5151617;27;20090;-54
2022/11/23 05:55:11;;;;;;;14.70;7.22;;;;;;;-2.82;100.00;98789.56;5151274;27;20588;-53
2022/11/23 05:57:37;;;;;;;12.65;6.53;;;;;;;-2.51;100.00;98823.00;5151693;27;20542;-55
2022/11/23 06:00:05;;;;;;;11.68;6.30;;;;;;;-2.41;100.00;98830.94;5151164;27;20050;-56
2022/11/23 06:02:31;;;;;;;13.00;6.93;;;;;;;-2.23;100.00;98848.19;5151675;27;20049;-55
2022/11/23 06:04:57;;;;;;;13.25;6.30;;;;;;;-2.15;100.00;98844.03;5151152;27;20211;-56
2022/11/23 06:07:23;;;;;;;11.13;6.13;;;;;;;-2.21;100.00;98821.03;5151316;27;20137;-56
2022/11/23 06:09:50;;;;;;;13.52;5.72;;;;;;;-2.37;100.00;98807.81;5151031;27;20051;-54
2022/11/23 06:12:17;;;;;;;13.13;6.45;;;;;;;-2.09;100.00;98826.78;5151406;27;20137;-53
2022/11/23 06:14:43;;;;;;;12.48;6.05;;;;;;;-2.11;100.00;98806.66;5150889;27;20082;-55
2022/11/23 06:17:09;;;;;;;17.17;6.90;;;;;;;-2.21;100.00;98796.84;5152212;27;20050;-54
2022/11/23 06:19:36;;;;;;;10.45;5.95;;;;;;;-2.11;100.00;98795.91;5154912;27;20043;-53
2022/11/23 06:22:02;;;;;;;11.75;6.13;;;;;;;-2.44;100.00;98790.44;5154585;27;20085;-54
2022/11/23 06:24:28;;;;;;;11.43;5.70;;;;;;;-2.14;100.00;98827.63;5154896;27;20458;-56
2022/11/23 06:26:55;;;;;;;26.10;9.75;;;;;;;-2.02;100.00;98802.22;5154732;27;20054;-58
2022/11/23 06:29:22;;;;;;;11.50;5.78;;;;;;;-1.99;100.00;98794.41;5155149;27;20050;-55
2022/11/23 06:31:48;;;;;;;13.90;7.10;;;;;;;-1.93;100.00;98776.31;5154964;27;20050;-57
2022/11/23 06:34:14;;;;;;;12.02;6.47;;;;;;;-1.86;100.00;98751.78;5155067;27;20078;-54
2022/11/23 06:36:42;;;;;;;13.75;5.47;;;;;;;-2.05;100.00;98706.13;5154423;27;20501;-53
2022/11/23 06:39:08;;;;;;;13.55;6.75;;;;;;;-1.82;100.00;98721.31;5154940;27;20054;-56
2022/11/23 06:41:35;;;;;;;16.40;6.78;;;;;;;-1.78;100.00;98710.78;5154573;27;20545;-55
2022/11/23 06:44:02;;;;;;;13.68;6.93;;;;;;;-1.82;100.00;98707.88;5154120;27;20061;-58
2022/11/23 06:46:28;;;;;;;25.77;9.70;;;;;;;-1.93;100.00;98699.19;5154415;27;20051;-57
2022/11/23 06:48:54;;;;;;;15.52;6.93;;;;;;;-1.82;100.00;98693.66;5154319;27;20049;-56
2022/11/23 06:51:21;;;;;;;13.75;7.53;;;;;;;-1.94;100.00;98678.78;5154479;27;20050;-53
2022/11/23 06:53:47;;;;;;;13.15;6.90;;;;;;;-1.72;100.00;98688.09;5154154;27;20098;-53
2022/11/23 06:56:13;;;;;;;14.75;6.95;;;;;;;-1.76;100.00;98652.97;5154419;27;20089;-50
2022/11/23 06:58:40;;;;;;;14.93;7.30;;;;;;;-1.68;100.00;98638.84;5154108;27;20082;-53
2022/11/23 07:01:08;;;;;;;16.88;7.43;;;;;;;-1.99;100.00;98625.16;5154335;27;20051;-53
2022/11/23 07:03:35;;;;;;;12.93;6.78;;;;;;;-1.88;100.00;98663.38;5153951;27;20061;-56
2022/11/23 07:06:05;;;;;;;11.15;5.03;;;;;;;-2.15;100.00;98656.03;5153952;27;20054;-56
2022/11/23 07:08:31;;;;;;;10.52;6.00;;;;;;;-2.00;100.00;98655.81;5154084;27;20058;-55
2022/11/23 07:11:00;;;;;;;10.40;5.15;;;;;;;-2.26;100.00;98636.63;5154021;27;20061;-56
2022/11/23 07:13:26;;;;;;;10.35;5.90;;;;;;;-2.17;100.00;98639.41;5154183;27;20046;-54
2022/11/23 07:15:53;;;;;;;9.30;5.63;;;;;;;-2.19;100.00;98637.03;5153736;27;20545;-54
2022/11/23 07:18:20;;;;;;;10.40;4.43;;;;;;;-2.18;100.00;98641.31;5154343;27;20046;-52
2022/11/23 07:20:46;;;;;;;14.18;6.25;;;;;;;-2.22;100.00;98644.88;5153745;27;20085;-52
2022/11/23 07:23:13;;;;;;;8.85;5.03;;;;;;;-1.95;100.00;98649.53;5154041;27;20134;-51
2022/11/23 07:25:39;;;;;;;11.23;5.53;;;;;;;-1.98;100.00;98623.25;5153526;27;20106;-52
2022/11/23 07:28:07;;;;;;;12.48;5.47;;;;;;;-2.01;100.00;98623.84;5153356;27;20530;-53
2022/11/23 07:30:35;;;;;;;10.57;5.88;;;;;;;-2.00;100.00;98626.25;5153609;27;20149;-52
2022/11/23 07:33:02;;;;;;;9.73;4.97;;;;;;;-1.81;100.00;98644.19;5153506;27;20050;-53
2022/11/23 07:35:31;;;;;;;13.20;5.90;;;;;;;-1.67;100.00;98645.00;5153697;27;20200;-51
2022/11/23 07:37:58;;;;;;;11.77;5.70;;;;;;;-1.68;100.00;98609.25;5153915;27;20046;-51
2022/11/23 07:40:25;;;;;;;9.52;5.35;;;;;;;-1.84;100.00;98562.28;5153886;27;20043;-52
2022/11/23 07:42:52;;;;;;;10.02;5.43;;;;;;;-1.73;100.00;98563.69;5153563;27;20055;-51
2022/11/23 07:45:18;;;;;;;10.98;4.97;;;;;;;-1.66;100.00;98541.78;5153957;27;20054;-52
2022/11/23 07:47:45;;;;;;;9.75;4.75;;;;;;;-1.65;100.00;98524.56;5153631;27;20625;-55
2022/11/23 07:50:13;;;;;;;9.25;5.10;;;;;;;-1.61;100.00;98487.91;5153860;27;20137;-54
2022/11/23 07:52:40;;;;;;;8.10;4.57;;;;;;;-1.64;100.00;98440.16;5153401;27;20165;-54
2022/11/23 07:55:07;;;;;;;7.82;4.13;;;;;;;-1.81;100.00;98421.19;5153552;27;20476;-55
2022/11/23 07:57:33;;;;;;;11.45;5.28;;;;;;;-2.01;100.00;98396.31;5153422;27;20353;-52
2022/11/23 07:59:59;;;;;;;8.00;4.32;;;;;;;-1.78;100.00;98412.50;5153521;27;20050;-51
2022/11/23 08:02:26;;;;;;;9.52;4.07;;;;;;;-1.81;100.00;98391.63;5153252;27;20061;-56
2022/11/23 08:04:52;;;;;;;9.88;4.97;;;;;;;-1.86;100.00;98410.56;5152925;27;20055;-51
2022/11/23 08:07:18;;;;;;;9.02;5.43;;;;;;;-1.90;100.00;98402.28;5153278;27;20103;-52
2022/11/23 08:09:45;;;;;;;7.88;3.58;;;;;;;-1.97;100.00;98434.91;5153236;27;20069;-53
2022/11/23 08:12:12;;;;;;;10.57;5.38;;;;;;;-1.98;100.00;98475.53;5153122;27;20062;-54
2022/11/23 08:14:38;;;;;;;6.38;3.80;;;;;;;-1.88;100.00;98498.69;5152978;27;20184;-57
2022/11/23 08:17:05;;;;;;;10.55;4.90;;;;;;;-1.82;100.00;98524.38;5153180;27;20054;-55
2022/11/23 08:19:31;;;;;;;10.70;4.75;;;;;;;-1.70;100.00;98538.09;5152911;27;20133;-54
2022/11/23 08:21:57;;;;;;;8.27;4.43;;;;;;;-1.63;100.00;98576.13;5153144;27;20082;-51
2022/11/23 08:24:23;;;;;;;9.38;4.60;;;;;;;-1.74;100.00;98526.34;5152844;27;20060;-51
2022/11/23 08:26:50;;;;;;;9.35;4.97;;;;;;;-2.09;100.00;98512.53;5152915;27;20090;-51
2022/11/23 08:29:17;;;;;;;8.70;4.75;;;;;;;-1.98;100.00;98542.69;5152541;27;20114;-55
2022/11/23 08:31:43;;;;;;;7.85;4.45;;;;;;;-2.20;100.00;98571.00;5152545;27;20084;-55
2022/11/23 08:34:09;;;;;;;5.53;4.32;;;;;;;-1.97;100.00;98631.00;5152704;27;20416;-51
2022/11/23 08:36:37;;;;;;;6.53;4.03;;;;;;;-1.90;100.00;98631.44;5152350;27;20141;-55
2022/11/23 08:39:03;;;;;;;13.88;5.65;;;;;;;-1.83;100.00;98625.69;5152166;27;20520;-54
2022/11/23 08:41:29;;;;;;;11.23;5.00;;;;;;;-1.81;100.00;98636.13;5151911;27;20565;-57
2022/11/23 08:43:56;;;;;;;8.07;4.50;;;;;;;-1.86;100.00;98622.81;5152785;27;20089;-56
2022/11/23 08:46:23;;;;;;;7.95;4.68;;;;;;;-1.69;100.00;98625.69;5152514;27;20093;-57
2022/11/23 08:48:50;;;;;;;9.25;5.03;;;;;;;-1.92;100.00;98579.09;5152585;27;20054;-58
2022/11/23 08:51:21;;;;;;;8.63;4.47;;;;;;;-1.91;100.00;98616.41;5152332;27;20573;-57
2022/11/23 08:53:47;;;;;;;11.98;5.05;;;;;;;-2.29;100.00;98664.06;5152439;27;20043;-60
2022/11/23 08:56:14;;;;;;;10.25;6.18;;;;;;;-1.95;100.00;98717.50;5152048;27;20106;-55
2022/11/23 08:58:40;;;;;;;7.50;5.05;;;;;;;-2.20;100.00;98683.78;5152159;27;20096;-51
2022/11/23 09:01:08;;;;;;;8.70;4.55;;;;;;;-2.06;100.00;98691.09;5152244;27;20047;-55
2022/11/23 09:03:35;;;;;;;7.68;4.15;;;;;;;-2.06;100.00;98689.22;5152291;27;20057;-53
2022/11/23 09:06:01;;;;;;;5.88;3.53;;;;;;;-2.03;100.00;98671.69;5152155;27;20246;-55
2022/11/23 09:08:28;;;;;;;9.82;5.10;;;;;;;-2.06;100.00;98675.00;5152196;27;20507;-56
2022/11/23 09:10:58;;;;;;;9.40;4.47;;;;;;;-1.68;100.00;98703.34;5152122;27;20047;-56
2022/11/23 09:13:24;;;;;;;9.27;5.28;;;;;;;-1.66;100.00;98655.47;5151940;27;20617;-51
2022/11/23 09:15:50;;;;;;;7.97;4.93;;;;;;;-1.58;100.00;98602.91;5152011;27;20179;-50
2022/11/23 09:18:18;;;;;;;7.82;5.45;;;;;;;-1.70;100.00;98559.59;5151749;27;20483;-49
2022/11/23 09:20:44;;;;;;;10.55;4.55;;;;;;;-1.64;100.00;98558.41;5151851;27;20046;-51
2022/11/23 09:23:10;;;;;;;8.20;4.75;;;;;;;-1.58;100.00;98569.84;5151629;27;20061;-52
2022/11/23 09:25:36;;;;;;;9.48;5.45;;;;;;;-1.63;100.00;98543.06;5151620;27;20051;-48
2022/11/23 09:28:03;;;;;;;9.02;4.53;;;;;;;-1.60;100.00;98566.66;5151770;27;20093;-48
2022/11/23 09:30:29;;;;;;;7.68;4.40;;;;;;;-2.17;100.00;98521.25;5151730;27;20103;-50
2022/11/23 09:32:56;;;;;;;8.68;4.45;;;;;;;-1.70;100.00;98570.34;5151555;27;20126;-49
2022/11/23 09:35:24;;;;;;;8.77;4.70;;;;;;;-1.87;100.00;98537.91;5151611;27;20047;-49
2022/11/23 09:37:55;;;;;;;7.63;4.78;;;;;;;-1.76;100.00;98555.44;5151569;27;20506;-49
2022/11/23 09:40:22;;;;;;;8.82;4.97;;;;;;;-1.80;100.00;98549.88;5151289;27;20050;-50
2022/11/23 09:43:08;;;;;;;9.10;4.97;;;;;;;-1.93;100.00;98564.88;5151559;27;20057;-49
2022/11/23 09:45:43;;;;;;;9.43;4.63;;;;;;;-1.68;100.00;98595.03;5151377;27;20133;-50
2022/11/23 09:48:50;;;;;;;13.30;5.57;;;;;;;-1.56;100.00;98567.69;5151692;27;20152;-49
2022/11/23 09:51:19;;;;;;;9.25;5.15;;;;;;;-1.37;100.00;98554.09;5130477;27;20092;-50
2022/11/23 09:53:49;;;;;;;9.40;4.63;;;;;;;-1.22;100.00;98526.88;5151680;27;20069;-48
2022/11/23 09:56:19;;;;;;;11.05;5.25;;;;;;;-1.24;100.00;98446.50;5151267;27;20047;-49
2022/11/23 09:58:46;;;;;;;8.07;5.05;;;;;;;-1.17;100.00;98421.88;5151215;27;20055;-49
2022/11/23 10:01:15;;;;;;;9.23;4.63;;;;;;;-1.16;100.00;98358.94;5151106;27;20472;-51
2022/11/23 10:03:43;;;;;;;10.98;5.03;;;;;;;-1.51;100.00;98304.91;5151020;27;20054;-51
2022/11/23 10:06:18;;;;;;;8.93;4.68;;;;;;;-1.28;100.00;98312.97;5151109;27;20110;-50
2022/11/23 10:09:00;;;;;;;9.55;5.68;;;;;;;-1.46;100.00;98285.19;5151220;27;20043;-50
2022/11/23 10:11:41;;;;;;;8.70;5.80;;;;;;;-1.30;100.00;98350.94;5150998;27;20094;-49
2022/11/23 10:14:19;;;;;;;11.10;6.47;;;;;;;-1.20;100.00;98366.81;5151089;27;20527;-50
2022/11/23 10:16:52;;;;;;;9.80;6.32;;;;;;;-1.08;100.00;98379.69;5150581;27;20050;-48
2022/11/23 10:19:31;;;;;;;15.88;7.40;;;;;;;-1.09;100.00;98364.66;5151424;27;20058;-48
2022/11/23 10:22:08;;;;;;;14.63;7.70;;;;;;;-1.21;100.00;98362.50;5150923;27;20043;-49
2022/11/23 10:24:38;;;;;;;13.23;6.68;;;;;;;-1.18;100.00;98404.16;5151012;27;20051;-48
2022/11/23 10:27:09;;;;;;;16.45;6.70;;;;;;;-1.23;100.00;98436.56;5151042;27;20050;-47
2022/11/23 10:29:37;;;;;;;15.10;7.40;;;;;;;-1.11;100.00;98420.66;5150821;27;20053;-49
2022/11/23 10:32:06;;;;;;;14.90;7.88;;;;;;;-1.22;100.00;98435.44;5151080;27;20043;-48
2022/11/23 10:34:47;;;;;;;12.10;6.88;;;;;;;-1.40;100.00;98417.56;5150769;27;20062;-49
2022/11/23 10:37:16;;;;;;;11.80;6.32;;;;;;;-1.37;100.00;98449.22;5150938;27;20055;-48
2022/11/23 10:39:43;;;;;;;13.07;7.15;;;;;;;-1.16;100.00;98444.19;5150594;27;20054;-46
2022/11/23 10:42:18;;;;;;;20.33;8.02;;;;;;;-1.19;100.00;98437.53;5150494;27;20068;-46
2022/11/23 10:44:46;;;;;;;17.77;6.60;;;;;;;-1.08;100.00;98422.72;5150621;27;20047;-46
2022/11/23 10:47:33;;;;;;;19.88;8.20;;;;;;;-1.06;100.00;98396.31;5150273;27;20101;-51
2022/11/23 10:49:59;;;;;;;12.15;7.32;;;;;;;-1.32;100.00;98373.84;5150658;27;20588;-49
2022/11/23 10:52:29;;;;;;;13.57;6.63;;;;;;;-1.12;100.00;98415.59;5150477;27;20046;-48
2022/11/23 10:54:58;;;;;;;12.68;7.55;;;;;;;-1.26;100.00;98397.63;5150607;27;20506;-48
2022/11/23 10:57:31;;;;;;;16.40;7.88;;;;;;;-1.25;100.00;98398.41;5150525;27;20489;-51
2022/11/23 11:00:00;;;;;;;13.98;8.43;;;;;;;-1.43;100.00;98376.00;5150073;27;20509;-47
2022/11/23 11:02:26;;;;;;;18.60;8.32;;;;;;;-1.20;100.00;98398.28;5150276;27;20050;-48
2022/11/23 11:05:14;;;;;;;15.52;7.65;;;;;;;-1.16;100.00;98371.59;5153352;27;20133;-47
2022/11/23 11:07:41;;;;;;;16.48;7.72;;;;;;;-1.30;100.00;98355.50;5153981;27;20053;-47
2022/11/23 11:10:39;;;;;;;14.20;6.28;;;;;;;-1.32;100.00;98336.97;5153778;27;20046;-49
2022/11/23 11:13:22;;;;;;;14.07;6.38;;;;;;;-1.38;100.00;98353.56;5153596;27;20082;-50
2022/11/23 11:15:55;;;;;;;12.13;6.47;;;;;;;-1.52;100.00;98370.53;5153772;27;20400;-48
2022/11/23 11:18:25;;;;;;;14.85;8.30;;;;;;;-1.51;100.00;98442.00;5153560;27;20142;-52
2022/11/23 11:20:56;;;;;;;11.65;5.72;;;;;;;-1.31;100.00;98442.66;5153899;27;20047;-48
2022/11/23 11:23:24;;;;;;;13.27;6.80;;;;;;;-1.65;100.00;98419.75;5153723;27;20054;-49
2022/11/23 11:26:03;;;;;;;10.57;5.35;;;;;;;-1.25;100.00;98425.31;5153704;27;20051;-48